Julian (221, 222, JU1, MAN1, OK1, SL1) Station Data

Red Flag Warning: No
Fire Weather Zone: 258
SDGE Region: Ramona
Lat/Lon: 33.076/-116.591

Observations

Time Wind Speed/Gust Temp(F) RH Fuel Moist Fuel Temp(F) Dewpt(F) Tmax(F) Tmin(F) Accum Precip 10-min Precip SL Press(mb)
2/27 11:40pm 264 13 G 23 40° 95% - - 39° 44.6° 37.9° - - -
2/27 11:20pm 278 14 G 24 41° 95% - - 40° 44.6° 37.9° - - -
2/27 11:10pm 266 11 G 19 41° 95% - - 40° 44.6° 37.9° - - -
2/27 11:00pm 258 15 G 27 42° 96% - - 41° 44.6° 37.9° - - -
2/27 10:50pm 263 12 G 26 42° 95% - - 41° 44.6° 37.9° - - -
2/27 10:40pm 261 16 G 29 42° 95% - - 41° 44.6° 37.9° - - -
2/27 10:30pm 269 16 G 29 42° 95% - - 41° 44.6° 37.9° - - -
2/27 10:20pm 267 18 G 32 42° 95% - - 41° 44.6° 37.9° - - -
2/27 10:10pm 265 18 G 32 42° 95% - - 41° 44.6° 37.9° - - -
2/27 10:00pm 268 17 G 29 42° 95% - - 41° 44.6° 37.9° - - -
2/27 9:50pm 268 12 G 27 42° 96% - - 41° 44.6° 37.9° - - -
2/27 9:40pm 244 6 G 17 42° 95% - - 41° 44.6° 37.9° - - -
2/27 9:30pm 259 7 G 16 42° 95% - - 41° 44.6° 37.9° - - -
2/27 9:20pm 266 13 G 26 42° 95% - - 41° 44.6° 37.9° - - -
2/27 9:10pm 266 17 G 30 42° 95% - - 41° 44.6° 37.9° - - -
2/27 9:00pm 268 13 G 26 42° 95% - - 41° 44.6° 37.9° - - -
2/27 8:50pm 264 8 G 17 42° 95% - - 41° 44.6° 37.9° - - -
2/27 8:40pm 270 12 G 20 42° 95% - - 41° 44.6° 37.9° - - -
2/27 8:30pm 250 6 G 14 42° 95% - - 41° 44.6° 37.9° - - -
2/27 8:20pm 253 5 G 12 42° 94% - - 40° 44.6° 37.9° - - -
2/27 8:10pm 259 7 G 18 42° 94% - - 40° 44.6° 37.9° - - -
2/27 8:00pm 247 7 G 18 42° 94% - - 40° 44.6° 37.9° - - -
2/27 7:50pm 240 11 G 26 42° 94% - - 41° 44.6° 37.9° - - -
2/27 7:40pm 238 10 G 21 42° 95% - - 41° 44.6° 37.9° - - -
2/27 7:30pm 242 7 G 21 42° 95% - - 41° 44.6° 37.9° - - -
2/27 7:20pm 236 6 G 20 42° 95% - - 40° 44.6° 37.9° - - -
2/27 7:10pm 256 6 G 14 42° 95% - - 41° 44.6° 37.9° - - -
2/27 7:00pm 254 9 G 22 42° 95% - - 40° 44.6° 37.9° - - -
2/27 6:50pm 266 9 G 20 42° 95% - - 40° 44.6° 37.9° - - -
2/27 6:40pm 243 4 G 10 42° 95% - - 40° 44.6° 37.9° - - -
2/27 6:30pm 258 10 G 19 42° 95% - - 40° 44.6° 37.9° - - -
2/27 6:20pm 249 7 G 16 42° 96% - - 41° 44.6° 37.9° - - -
2/27 6:10pm 252 8 G 18 42° 95% - - 40° 44.6° 37.9° - - -
2/27 6:00pm 243 8 G 21 41° 95% - - 40° 44.6° 37.9° - - -
2/27 5:50pm 243 7 G 18 42° 95% - - 40° 44.6° 37.9° - - -
2/27 5:40pm 237 8 G 22 42° 95% - - 40° 44.6° 37.9° - - -
2/27 5:30pm 239 7 G 20 42° 95% - - 41° 44.6° 37.9° - - -
2/27 5:20pm 239 8 G 21 42° 95% - - 41° 44.6° 37.9° - - -
2/27 5:10pm 244 11 G 23 42° 95% - - 41° 44.6° 37.9° - - -
2/27 5:00pm 262 9 G 23 42° 94% - - 40° 44.6° 37.9° - - -
2/27 4:50pm 241 8 G 19 42° 94% - - 40° 44.6° 37.9° - - -
2/27 4:40pm 242 7 G 19 42° 94% - - 40° 44.6° 37.9° - - -
2/27 4:30pm 242 9 G 18 42° 94% - - 40° 44.6° 37.9° - - -
2/27 4:20pm 239 10 G 22 42° 94% - - 40° 44.6° 37.9° - - -
2/27 4:10pm 231 10 G 19 42° 94% - - 41° 44.6° 37.9° - - -
2/27 4:00pm 239 8 G 22 42° 94% - - 41° 44.6° 37.9° - - -
2/27 3:50pm 250 7 G 18 42° 94% - - 40° 44.6° 37.9° - - -
2/27 3:40pm 244 9 G 20 42° 94% - - 40° 44.6° 37.9° - - -
2/27 3:30pm 234 12 G 29 42° 93% - - 40° 44.6° 37.9° - - -
2/27 3:20pm 234 9 G 21 42° 94% - - 41° 44.6° 37.9° - - -
2/27 3:10pm 234 8 G 19 42° 94% - - 41° 44.6° 37.9° - - -
2/27 3:00pm 265 11 G 24 43° 95% - - 41° 44.6° 37.9° - - -
2/27 2:50pm 256 11 G 26 43° 95% - - 41° 44.6° 37.9° - - -
2/27 2:40pm 252 7 G 21 43° 95% - - 42° 44.6° 37.9° - - -
2/27 2:30pm 262 8 G 21 43° 95% - - 42° 44.6° 37.9° - - -
2/27 2:20pm 237 8 G 28 43° 95% - - 42° 44.6° 37.9° - - -
2/27 2:10pm 245 7 G 15 43° 95% - - 42° 44.6° 37.9° - - -
2/27 2:00pm 256 11 G 24 44° 95% - - 42° 44.6° 37.9° - - -
2/27 1:50pm 259 9 G 27 44° 95% - - 42° 44.6° 37.9° - - -
2/27 1:40pm 262 14 G 27 44° 95% - - 42° 44.6° 37.9° - - -
2/27 1:30pm 260 10 G 29 44° 95% - - 42° 44.6° 37.9° - - -
2/27 1:20pm 248 6 G 19 44° 95% - - 42° 44.6° 37.9° - - -
2/27 1:10pm 233 7 G 21 44° 94% - - 43° 44.6° 37.9° - - -
2/27 1:00pm 235 8 G 23 44° 95% - - 43° 44.6° 37.9° - - -
2/27 12:40pm 247 6 G 23 44° 95% - - 42° 44.6° 37.9° - - -
2/27 12:30pm 259 7 G 20 44° 95% - - 42° 44.6° 37.9° - - -
2/27 12:20pm 241 7 G 22 44° 95% - - 42° 44.6° 37.9° - - -
2/27 12:10pm 233 7 G 23 43° 95% - - 42° 44.6° 37.9° - - -
2/27 12:00pm 246 6 G 21 43° 95% - - 42° 44.6° 37.9° - - -
2/27 11:50am 252 8 G 18 43° 95% - - 42° 44.6° 37.9° - - -
2/27 11:40am 267 13 G 26 43° 95% - - 42° 44.6° 37.9° - - -
2/27 11:30am 264 9 G 17 43° 95% - - 42° 44.6° 37.9° - - -
2/27 11:20am 267 14 G 28 43° 95% - - 42° 44.6° 37.9° - - -
2/27 11:10am 268 16 G 28 44° 94% - - 42° 44.6° 37.9° - - -
2/27 11:00am 268 15 G 29 44° 94% - - 42° 44.6° 37.9° - - -
2/27 10:50am 267 12 G 24 44° 95% - - 43° 44.6° 37.9° - - -
2/27 10:40am 264 8 G 18 44° 95% - - 43° 44.6° 37.9° - - -
2/27 10:30am 260 12 G 26 44° 95% - - 43° 44.6° 37.9° - - -
2/27 10:20am 268 16 G 26 44° 95% - - 43° 44.6° 37.9° - - -
2/27 10:10am 263 14 G 29 44° 95% - - 43° 44.6° 37.9° - - -
2/27 10:00am 269 13 G 24 44° 95% - - 43° 44.6° 37.9° - - -
2/27 9:50am 266 11 G 21 44° 95% - - 43° 44.6° 37.9° - - -
2/27 9:40am 265 9 G 18 44° 95% - - 43° 44.6° 37.9° - - -
2/27 9:30am 272 9 G 16 44° 95% - - 43° 44.6° 37.9° - - -
2/27 9:20am 275 10 G 16 44° 95% - - 43° 44.6° 37.9° - - -
2/27 9:10am 271 11 G 18 44° 95% - - 43° 44.6° 37.9° - - -
2/27 9:00am 268 10 G 17 44° 95% - - 43° 44.6° 37.9° - - -
2/27 8:50am 266 8 G 17 44° 95% - - 43° 44.6° 37.9° - - -
2/27 8:40am 249 5 G 10 44° 95% - - 43° 44.6° 37.9° - - -
2/27 8:30am 249 4 G 13 44° 95% - - 43° 44.6° 37.9° - - -
2/27 8:20am 260 7 G 17 44° 95% - - 43° 44.6° 37.9° - - -
2/27 8:10am 269 11 G 21 44° 95% - - 43° 44.6° 37.9° - - -
2/27 8:00am 269 13 G 26 44° 95% - - 43° 44.6° 37.9° - - -
2/27 7:50am 268 12 G 21 44° 95% - - 43° 44.6° 37.9° - - -
2/27 7:40am 265 11 G 21 44° 95% - - 43° 44.6° 37.9° - - -
2/27 7:30am 270 10 G 19 44° 95% - - 43° 44.6° 37.9° - - -
2/27 7:20am 259 7 G 16 44° 95% - - 43° 44.4° 37.9° - - -
2/27 7:10am 254 8 G 20 44° 95% - - 43° 44.2° 37.9° - - -
2/27 7:00am 267 10 G 21 44° 95% - - 43° 44.2° 37.9° - - -
2/27 6:50am 259 7 G 20 44° 95% - - 43° 44.1° 37.9° - - -
2/27 6:40am 250 6 G 17 44° 95% - - 42° 44° 37.9° - - -
2/27 6:30am 268 11 G 20 44° 95% - - 42° 43.9° 37.9° - - -
2/27 6:20am 271 11 G 19 44° 95% - - 42° 43.9° 37.9° - - -
2/27 6:10am 264 7 G 16 44° 95% - - 42° 43.9° 37.9° - - -
2/27 6:00am 254 6 G 14 44° 95% - - 42° 43.9° 37.9° - - -
2/27 5:50am 251 5 G 14 44° 95% - - 42° 43.9° 37.9° - - -
2/27 5:40am 235 10 G 20 44° 95% - - 42° 43.9° 37.9° - - -
2/27 5:30am 240 7 G 16 44° 95% - - 42° 43.9° 37.9° - - -
2/27 5:20am 234 5 G 18 44° 95% - - 42° 43.8° 37.9° - - -
2/27 5:10am 254 5 G 20 44° 95% - - 42° 43.8° 37.9° - - -
2/27 5:00am 239 6 G 20 44° 95% - - 42° 43.8° 37.9° - - -
2/27 4:50am 236 9 G 19 43° 95% - - 42° 43.8° 37.9° - - -
2/27 4:40am 237 8 G 18 43° 95% - - 42° 43.5° 37.9° - - -
2/27 4:30am 240 6 G 15 43° 95% - - 42° 43.3° 37.9° - - -
2/27 4:20am 247 6 G 15 43° 95% - - 42° 43.1° 37.9° - - -
2/27 4:10am 262 6 G 13 43° 95% - - 42° 43° 37.9° - - -
2/27 4:00am 269 9 G 16 43° 95% - - 41° 42.8° 37.9° - - -
2/27 3:50am 275 12 G 21 43° 96% - - 41° 42.7° 37.9° - - -
2/27 3:40am 277 13 G 20 42° 96% - - 41° 42.7° 37.9° - - -
2/27 3:30am 276 14 G 21 42° 96% - - 41° 42.7° 37.9° - - -
2/27 3:20am 273 15 G 25 42° 96% - - 41° 42.7° 37.9° - - -
2/27 3:10am 271 13 G 23 42° 96% - - 41° 42.4° 37.9° - - -
2/27 3:00am 258 9 G 21 42° 96% - - 41° 42.1° 37.9° - - -
2/27 2:50am 267 12 G 20 42° 96% - - 41° 42° 37.9° - - -
2/27 2:40am 271 12 G 24 42° 96% - - 40° 41.7° 37.9° - - -
2/27 2:30am 272 18 G 31 41° 96% - - 40° 41.6° 37.9° - - -
2/27 2:20am 270 19 G 31 41° 96% - - 40° 41.4° 37.9° - - -
2/27 2:10am 266 19 G 28 41° 96% - - 40° 41.3° 37.9° - - -
2/27 2:00am 269 18 G 30 41° 96% - - 40° 41.3° 37.9° - - -
2/27 1:50am 270 17 G 29 41° 96% - - 40° 41.1° 37.9° - - -
2/27 1:40am 270 18 G 28 41° 96% - - 40° 41° 37.9° - - -
2/27 1:30am 268 15 G 26 41° 96% - - 40° 40.8° 37.9° - - -
2/27 1:20am 267 14 G 27 40° 96% - - 39° 40.8° 37.9° - - -
2/27 1:10am 270 18 G 29 40° 96% - - 39° 40.5° 37.9° - - -
2/27 1:00am 269 19 G 32 40° 96% - - 39° 40.2° 37.9° - - -
2/27 12:50am 266 18 G 29 40° 96% - - 39° 39.8° 37.9° - - -
2/27 12:40am 266 18 G 30 39° 96% - - 38° 39.6° 37.9° - - -
2/27 12:30am 266 18 G 32 39° 96% - - 38° 39.5° 37.9° - - -
2/27 12:20am 266 18 G 30 39° 96% - - 38° 39.3° 37.9° - - -
2/27 12:10am 269 19 G 29 38° 96% - - 37° 38.9° 37.9° - - -
2/27 12:00am 269 20 G 30 38° 96% - - 37° 39.4° 32.9° - - -
2/26 11:50pm 270 19 G 33 38° 96% - - 37° 39.4° 32.9° - - -
2/26 11:40pm 266 20 G 29 37° 95% - - 36° 39.4° 32.9° - - -
2/26 11:30pm 267 20 G 32 37° 94% - - 35° 39.4° 32.9° - - -
2/26 11:20pm 268 20 G 31 36° 92% - - 34° 39.4° 32.9° - - -
2/26 11:10pm 270 21 G 32 36° 89% - - 33° 39.4° 32.9° - - -
2/26 11:00pm 269 19 G 30 36° 89% - - 33° 39.4° 32.9° - - -
2/26 10:50pm 270 20 G 32 36° 95% - - 34° 39.4° 32.9° - - -
2/26 10:40pm 271 20 G 32 36° 96% - - 35° 39.4° 32.9° - - -
2/26 10:30pm 265 19 G 28 35° 96% - - 34° 39.4° 32.9° - - -
2/26 10:20pm 263 18 G 33 35° 96% - - 34° 39.4° 32.9° - - -
2/26 10:10pm 263 18 G 30 35° 95% - - 34° 39.4° 32.9° - - -
2/26 10:00pm 261 15 G 28 35° 95% - - 34° 39.4° 32.9° - - -
2/26 9:50pm 257 16 G 26 35° 95% - - 34° 39.4° 32.9° - - -
2/26 9:40pm 262 15 G 26 35° 95% - - 34° 39.4° 32.9° - - -
2/26 9:30pm 263 16 G 26 35° 94% - - 34° 39.4° 32.9° - - -
2/26 9:20pm 261 17 G 25 35° 95% - - 34° 39.4° 32.9° - - -
2/26 9:10pm 260 16 G 28 36° 95% - - 34° 39.4° 32.9° - - -
2/26 9:00pm 260 17 G 30 36° 95% - - 35° 39.4° 32.9° - - -
2/26 8:50pm 262 15 G 27 36° 95% - - 34° 39.4° 32.9° - - -
2/26 8:40pm 261 17 G 26 36° 96% - - 35° 39.4° 32.9° - - -
2/26 8:30pm 262 16 G 24 36° 95% - - 34° 39.4° 32.9° - - -
2/26 8:20pm 262 15 G 24 36° 95% - - 34° 39.4° 32.9° - - -
2/26 8:10pm 260 17 G 28 36° 95% - - 34° 39.4° 32.9° - - -
2/26 8:00pm 260 15 G 26 36° 95% - - 35° 39.4° 32.9° - - -
2/26 7:50pm 261 16 G 28 36° 95% - - 34° 39.4° 32.9° - - -
2/26 7:40pm 258 15 G 25 36° 95% - - 35° 39.4° 32.9° - - -
2/26 7:30pm 262 15 G 24 36° 96% - - 35° 39.4° 32.9° - - -
2/26 7:20pm 259 14 G 24 36° 96% - - 35° 39.4° 32.9° - - -
2/26 7:10pm 262 14 G 25 36° 96% - - 35° 39.4° 32.9° - - -
2/26 7:00pm 259 15 G 24 36° 96% - - 35° 39.4° 32.9° - - -
2/26 6:50pm 264 15 G 24 36° 96% - - 35° 39.4° 32.9° - - -
2/26 6:40pm 267 17 G 28 37° 96% - - 36° 39.4° 32.9° - - -
2/26 6:30pm 267 15 G 26 37° 96% - - 36° 39.4° 32.9° - - -
2/26 6:20pm 263 14 G 23 37° 95% - - 36° 39.4° 32.9° - - -
2/26 6:10pm 258 14 G 22 37° 94% - - 36° 39.4° 32.9° - - -
2/26 6:00pm 259 16 G 31 37° 94% - - 36° 39.4° 32.9° - - -
2/26 5:50pm 258 16 G 29 37° 94% - - 35° 39.4° 32.9° - - -
2/26 5:40pm 262 17 G 26 37° 94% - - 35° 39.4° 32.9° - - -
2/26 5:30pm 265 16 G 26 37° 94% - - 36° 39.4° 32.9° - - -
2/26 5:20pm 261 16 G 26 38° 94% - - 36° 39.4° 32.9° - - -
2/26 5:10pm 260 16 G 28 38° 94% - - 36° 39.4° 32.9° - - -
2/26 5:00pm 261 15 G 24 38° 93% - - 36° 39.4° 32.9° - - -
2/26 4:50pm 258 16 G 28 38° 93% - - 36° 39.4° 32.9° - - -